aviador You're here:

KMHL Decoded Metar

in
Report Time2017-06-23 22:15:00
UTC Time2017-06-23 22:29:59
Flight Rules vfr VFR
Wind340° at 11 kt
W.Decomp.*RWY 36: 10.3 kt HW 3.8 kt LCW
RWY 27: 3.8 kt HW 10.3 kt RCW
W.Rank340° ranks 27
Current wind is above 340° avg. (7.7)
Visibility9999 m
Phenomena:N/A
Clouds:N/A
Expected CloudBase > 7,200 ft AGL from Temp-Dew spread
CeilingNone
Temp28°C
Dew Point10°C (32% RH)
Heat Index27.2°C
AAT24.0°C
QNH1013 hPa
Raw Report
KMHL 232215Z AUTO 34011KT 10SM CLR 28/10 A2992 RMK AO2=

Extra information for KMHL:More info

Social comments